Time;durP1;ratioP1;P1;durP2;ratioP2;P2;SDS_P1;SDS_P2;PMS_P1;PMS_P2;Temp;Humidity;BMP_temperature;BMP_pressure;BME280_temperature;BME280_humidity;BME280_pressure;Samples;Min_cycle;Max_cycle;Signal;HPM_P1;HPM_P2
2023/06/15 00:00:47;;;;;;;3.65;3.35;;;22.50;55.20;;;;;;4995443;28;20187;-70
2023/06/15 00:03:13;;;;;;;3.08;2.88;;;22.50;55.20;;;;;;4995844;28;20180;-69
2023/06/15 00:05:39;;;;;;;3.58;3.30;;;22.50;55.20;;;;;;5028246;28;20257;-70
2023/06/15 00:08:05;;;;;;;3.65;3.35;;;22.50;55.20;;;;;;5012043;28;20235;-70
2023/06/15 00:10:31;;;;;;;3.22;3.03;;;22.50;55.20;;;;;;4995712;28;20232;-69
2023/06/15 00:12:58;;;;;;;3.35;3.05;;;22.50;55.20;;;;;;5028545;28;20295;-69
2023/06/15 00:15:24;;;;;;;3.33;3.03;;;22.50;55.20;;;;;;4995752;28;20279;-70
2023/06/15 00:17:49;;;;;;;3.85;3.03;;;22.50;55.20;;;;;;5011991;28;20238;-70
2023/06/15 00:20:16;;;;;;;3.47;3.28;;;22.50;55.20;;;;;;5011672;28;20216;-71
2023/06/15 00:22:45;;;;;;;3.78;3.38;;;22.50;55.20;;;;;;4995642;28;20254;-70
2023/06/15 00:25:11;;;;;;;3.58;3.28;;;22.50;55.20;;;;;;4995108;28;20188;-70
2023/06/15 00:27:37;;;;;;;3.53;3.22;;;22.50;55.20;;;;;;4995103;28;20180;-70
2023/06/15 00:30:05;;;;;;;3.20;3.00;;;22.50;55.20;;;;;;5011416;28;20227;-69
2023/06/15 00:32:31;;;;;;;4.00;3.60;;;22.40;55.10;;;;;;5010726;28;20223;-69
2023/06/15 00:34:57;;;;;;;3.38;3.08;;;22.40;55.10;;;;;;5011696;28;20195;-69
2023/06/15 00:37:23;;;;;;;4.00;3.50;;;22.50;55.20;;;;;;4995323;28;20267;-69
2023/06/15 00:39:48;;;;;;;2.88;2.67;;;22.50;55.20;;;;;;4995084;28;20279;-70
2023/06/15 00:42:16;;;;;;;3.63;3.33;;;22.40;55.20;;;;;;4995432;28;20191;-70
2023/06/15 00:44:42;;;;;;;3.20;2.95;;;22.50;55.20;;;;;;5010561;28;20184;-69
2023/06/15 00:47:09;;;;;;;4.15;2.80;;;22.50;55.30;;;;;;5011353;28;20195;-70
2023/06/15 00:49:36;;;;;;;3.05;2.85;;;22.40;55.10;;;;;;5011443;28;20215;-69
2023/06/15 00:52:03;;;;;;;3.95;3.58;;;22.40;55.10;;;;;;5011533;28;20184;-69
2023/06/15 00:54:29;;;;;;;3.63;3.33;;;22.40;55.20;;;;;;5012483;28;20204;-70
2023/06/15 00:56:56;;;;;;;3.10;2.90;;;22.40;55.10;;;;;;5011352;28;20176;-69
2023/06/15 00:59:22;;;;;;;3.38;3.17;;;22.40;55.10;;;;;;5011287;28;20211;-69
2023/06/15 01:01:48;;;;;;;3.75;3.45;;;22.40;55.10;;;;;;5011301;28;20194;-69
2023/06/15 01:04:16;;;;;;;3.25;2.95;;;22.40;55.20;;;;;;4995254;28;20275;-69
2023/06/15 01:06:51;;;;;;;4.15;3.00;;;22.40;55.10;;;;;;4995095;28;20242;-70
2023/06/15 01:09:21;;;;;;;3.13;2.92;;;22.40;55.10;;;;;;4995021;28;20229;-69
2023/06/15 01:11:55;;;;;;;3.28;3.08;;;22.40;55.20;;;;;;4994955;28;20215;-71
2023/06/15 01:14:25;;;;;;;3.13;2.92;;;22.40;55.20;;;;;;5011172;28;20205;-69
2023/06/15 01:17:02;;;;;;;3.45;3.25;;;22.40;55.20;;;;;;5012382;28;20165;-69
2023/06/15 01:19:58;;;;;;;3.72;3.42;;;22.40;55.20;;;;;;5011247;28;20419;-72
2023/06/15 01:22:45;;;;;;;3.08;2.88;;;22.40;55.20;;;;;;5011328;28;20180;-70
2023/06/15 01:25:29;;;;;;;3.20;3.00;;;22.40;55.20;;;;;;4995002;28;20302;-69
2023/06/15 01:28:01;;;;;;;3.58;3.38;;;22.40;55.30;;;;;;5010921;28;20188;-69
2023/06/15 01:30:44;;;;;;;3.58;3.30;;;22.40;55.20;;;;;;4994597;28;20223;-70
2023/06/15 01:33:11;;;;;;;3.30;3.10;;;22.40;55.20;;;;;;5011520;28;20207;-69
2023/06/15 01:35:38;;;;;;;3.63;3.33;;;22.40;55.20;;;;;;5010870;28;20656;-69
2023/06/15 01:38:09;;;;;;;3.75;3.45;;;22.40;55.30;;;;;;4995622;28;20195;-70
2023/06/15 01:40:40;;;;;;;3.35;3.08;;;22.40;55.20;;;;;;4994367;28;20278;-69
2023/06/15 01:43:11;;;;;;;3.40;3.10;;;22.40;55.30;;;;;;5027652;28;20176;-70
2023/06/15 01:45:41;;;;;;;3.22;2.72;;;22.40;55.30;;;;;;5014450;28;20179;-69
2023/06/15 01:48:08;;;;;;;3.30;3.10;;;22.40;55.30;;;;;;5014055;28;20219;-70
2023/06/15 01:50:36;;;;;;;3.53;3.22;;;22.40;55.20;;;;;;5013929;28;20208;-69
2023/06/15 01:53:02;;;;;;;3.05;2.85;;;22.40;55.30;;;;;;5014261;28;20182;-70
2023/06/15 01:55:28;;;;;;;3.67;3.38;;;22.40;55.40;;;;;;5016165;28;20275;-72
2023/06/15 01:57:54;;;;;;;3.22;3.00;;;22.40;55.40;;;;;;5034041;28;20167;-69
2023/06/15 02:00:23;;;;;;;3.42;3.22;;;22.40;55.40;;;;;;5017496;28;20203;-69
2023/06/15 02:02:50;;;;;;;3.03;2.83;;;22.40;55.30;;;;;;5017614;28;20175;-69
2023/06/15 02:05:18;;;;;;;3.30;3.05;;;22.40;55.40;;;;;;5017357;28;20226;-70
2023/06/15 02:07:44;;;;;;;3.80;3.50;;;22.40;55.40;;;;;;5034112;28;20192;-70
2023/06/15 02:10:11;;;;;;;3.60;3.35;;;22.40;55.40;;;;;;5017282;28;20249;-69
2023/06/15 02:12:36;;;;;;;3.20;2.90;;;22.40;55.40;;;;;;5033874;28;20168;-69
2023/06/15 02:15:06;;;;;;;3.10;2.90;;;22.40;55.30;;;;;;5017964;28;20183;-70
2023/06/15 02:17:38;;;;;;;3.33;3.03;;;22.40;55.40;;;;;;5034131;28;20171;-69
2023/06/15 02:20:13;;;;;;;2.80;2.60;;;22.40;55.40;;;;;;5017332;28;20294;-71
2023/06/15 02:22:40;;;;;;;2.97;2.78;;;22.40;55.40;;;;;;5017109;28;20178;-69
2023/06/15 02:25:08;;;;;;;2.97;2.78;;;22.40;55.40;;;;;;5033889;28;20191;-70
2023/06/15 02:27:34;;;;;;;3.13;2.92;;;22.40;55.40;;;;;;5015201;28;20191;-68
2023/06/15 02:30:00;;;;;;;2.90;2.70;;;22.40;55.40;;;;;;5013500;28;20262;-69
2023/06/15 02:32:36;;;;;;;3.15;2.95;;;22.40;55.40;;;;;;5025408;28;20175;-72
2023/06/15 02:35:05;;;;;;;3.67;3.20;;;22.40;55.40;;;;;;5033353;28;20183;-72
2023/06/15 02:37:31;;;;;;;3.25;2.83;;;22.40;55.40;;;;;;5016481;28;20187;-69
2023/06/15 02:39:57;;;;;;;3.72;3.42;;;22.30;55.40;;;;;;5008842;28;20204;-69
2023/06/15 02:42:23;;;;;;;3.33;3.10;;;22.30;55.40;;;;;;5032539;28;20240;-70
2023/06/15 02:44:50;;;;;;;3.30;3.00;;;22.30;55.40;;;;;;5016907;28;20187;-69
2023/06/15 02:47:16;;;;;;;3.10;2.90;;;22.30;55.40;;;;;;5016299;28;20187;-70
2023/06/15 02:49:42;;;;;;;3.10;2.80;;;22.30;55.40;;;;;;5032616;28;20590;-69
2023/06/15 02:52:08;;;;;;;3.00;2.80;;;22.30;55.40;;;;;;5033032;28;20203;-70
2023/06/15 02:54:36;;;;;;;3.47;2.92;;;22.40;55.50;;;;;;5008288;28;20278;-69
2023/06/15 02:57:06;;;;;;;3.30;3.10;;;22.30;55.50;;;;;;5016158;28;20187;-70
2023/06/15 02:59:36;;;;;;;3.25;2.92;;;22.30;55.40;;;;;;5016806;28;20227;-69
2023/06/15 03:02:05;;;;;;;3.65;3.35;;;22.30;55.50;;;;;;5032502;28;20187;-70
2023/06/15 03:04:44;;;;;;;3.05;2.85;;;22.30;55.50;;;;;;5032680;28;20602;-70
2023/06/15 03:07:20;;;;;;;3.22;3.03;;;22.30;55.50;;;;;;5031792;28;20201;-68
2023/06/15 03:10:15;;;;;;;3.20;3.00;;;22.30;55.40;;;;;;5018137;28;20276;-69
2023/06/15 03:12:45;;;;;;;3.40;3.20;;;22.30;55.50;;;;;;5007114;28;20223;-70
2023/06/15 03:15:11;;;;;;;2.85;2.65;;;22.30;55.50;;;;;;5046872;28;20183;-69
2023/06/15 03:17:39;;;;;;;3.00;2.80;;;22.30;55.50;;;;;;5016168;28;20199;-70
2023/06/15 03:20:10;;;;;;;3.15;2.90;;;22.30;55.50;;;;;;5032333;28;20207;-71
2023/06/15 03:22:36;;;;;;;3.20;3.00;;;22.30;55.50;;;;;;5032358;28;20195;-70
2023/06/15 03:25:03;;;;;;;3.17;2.97;;;22.30;55.50;;;;;;5012691;28;20203;-69
2023/06/15 03:27:32;;;;;;;3.20;3.00;;;22.30;55.50;;;;;;5023830;28;20179;-70
2023/06/15 03:30:01;;;;;;;3.33;3.03;;;22.30;55.50;;;;;;5031930;28;20306;-69
2023/06/15 03:32:28;;;;;;;3.15;2.95;;;22.30;55.50;;;;;;5007795;28;20180;-70
2023/06/15 03:34:57;;;;;;;2.92;2.72;;;22.30;55.50;;;;;;5023931;28;20217;-69
2023/06/15 03:37:25;;;;;;;3.25;3.00;;;22.30;55.50;;;;;;5015672;28;20200;-71
2023/06/15 03:39:51;;;;;;;3.20;3.00;;;22.30;56.10;;;;;;5007300;28;20218;-70
2023/06/15 03:42:17;;;;;;;3.20;3.00;;;22.30;55.50;;;;;;5021889;28;20190;-70
2023/06/15 03:44:43;;;;;;;2.83;2.63;;;22.20;55.40;;;;;;5006986;28;20183;-69
2023/06/15 03:47:09;;;;;;;3.40;3.10;;;22.30;55.50;;;;;;5014630;28;20179;-70
2023/06/15 03:49:35;;;;;;;2.92;2.72;;;22.30;55.50;;;;;;4999406;28;20241;-74
2023/06/15 03:52:02;;;;;;;3.25;2.92;;;22.30;55.50;;;;;;5007240;28;20184;-70
2023/06/15 03:54:28;;;;;;;3.42;3.13;;;22.30;55.50;;;;;;5047689;28;20194;-70
2023/06/15 03:56:54;;;;;;;3.10;2.90;;;22.20;55.50;;;;;;5015207;28;20191;-69
2023/06/15 03:59:20;;;;;;;3.17;2.97;;;22.30;56.00;;;;;;5029549;28;20207;-71
2023/06/15 04:01:46;;;;;;;3.40;3.10;;;22.30;55.60;;;;;;5003386;28;20191;-70
2023/06/15 04:04:14;;;;;;;3.20;2.90;;;22.20;55.50;;;;;;5012444;28;20193;-70
2023/06/15 04:06:46;;;;;;;3.25;3.05;;;22.20;55.60;;;;;;5015139;28;20206;-70
2023/06/15 04:09:14;;;;;;;3.30;3.03;;;22.20;55.60;;;;;;5022352;28;20226;-69
2023/06/15 04:11:41;;;;;;;2.80;2.60;;;22.20;55.60;;;;;;5004829;28;20191;-70
2023/06/15 04:14:07;;;;;;;3.30;3.10;;;22.20;55.60;;;;;;5028394;28;20199;-71
2023/06/15 04:16:34;;;;;;;3.42;3.22;;;22.20;55.60;;;;;;5023462;28;20253;-69
2023/06/15 04:19:00;;;;;;;3.25;3.05;;;22.20;55.60;;;;;;5003567;28;20556;-69
2023/06/15 04:21:26;;;;;;;3.58;2.95;;;22.20;55.60;;;;;;5030984;28;20206;-72
2023/06/15 04:23:53;;;;;;;2.90;2.70;;;22.20;55.60;;;;;;5017642;28;20254;-73
2023/06/15 04:26:19;;;;;;;3.28;2.97;;;22.20;55.60;;;;;;5010460;28;20196;-70
2023/06/15 04:28:45;;;;;;;3.25;3.05;;;22.20;55.60;;;;;;5011233;28;20226;-70
2023/06/15 04:31:17;;;;;;;3.42;3.22;;;22.20;55.60;;;;;;5027424;28;20310;-69
2023/06/15 04:33:46;;;;;;;3.13;2.92;;;22.20;55.70;;;;;;5008540;28;20187;-68
2023/06/15 04:36:13;;;;;;;3.05;2.85;;;22.20;55.70;;;;;;5003996;28;20192;-69
2023/06/15 04:38:49;;;;;;;3.33;3.00;;;22.20;55.60;;;;;;5022777;28;20190;-69
2023/06/15 04:41:22;;;;;;;3.08;2.88;;;22.20;55.70;;;;;;5030932;28;20183;-70
2023/06/15 04:43:48;;;;;;;3.00;2.80;;;22.20;55.70;;;;;;5017829;28;20191;-70
2023/06/15 04:46:15;;;;;;;3.00;2.80;;;22.20;55.70;;;;;;5004075;28;20194;-69
2023/06/15 04:48:43;;;;;;;3.10;2.90;;;22.20;55.80;;;;;;5014789;28;20203;-68
2023/06/15 04:51:13;;;;;;;2.95;2.75;;;22.20;55.80;;;;;;5027605;28;20192;-69
2023/06/15 04:53:44;;;;;;;2.97;2.78;;;22.20;55.70;;;;;;5022324;28;20179;-69
2023/06/15 04:56:11;;;;;;;3.28;3.08;;;22.20;55.70;;;;;;5027444;28;20188;-69
2023/06/15 04:58:39;;;;;;;3.00;2.80;;;22.20;55.70;;;;;;4998873;28;20194;-69
2023/06/15 05:01:06;;;;;;;3.42;3.20;;;22.20;55.80;;;;;;5047277;28;20249;-69
2023/06/15 05:03:33;;;;;;;3.20;3.00;;;22.20;55.70;;;;;;5022723;28;20191;-69
2023/06/15 05:05:59;;;;;;;3.20;3.00;;;22.20;55.70;;;;;;5022967;28;20209;-69
2023/06/15 05:08:25;;;;;;;3.28;3.08;;;22.20;55.70;;;;;;5006386;28;20678;-69
2023/06/15 05:10:51;;;;;;;3.28;3.00;;;22.20;55.70;;;;;;5011159;28;20261;-69
2023/06/15 05:13:21;;;;;;;2.85;2.65;;;22.20;55.70;;;;;;5011255;28;20196;-69
2023/06/15 05:15:48;;;;;;;2.97;2.78;;;22.30;55.80;;;;;;5011032;28;20191;-68
2023/06/15 05:18:16;;;;;;;3.38;2.65;;;22.30;55.80;;;;;;5012018;28;20210;-69
2023/06/15 05:20:42;;;;;;;3.10;2.90;;;22.30;55.80;;;;;;5042906;28;20208;-69
2023/06/15 05:23:08;;;;;;;3.30;3.05;;;22.30;55.80;;;;;;5018725;28;20291;-70
2023/06/15 05:25:34;;;;;;;3.13;2.92;;;22.30;55.80;;;;;;5039065;28;20190;-70
2023/06/15 05:28:00;;;;;;;3.08;2.88;;;22.30;55.80;;;;;;5006393;28;20187;-69
2023/06/15 05:30:26;;;;;;;3.30;3.00;;;22.30;55.90;;;;;;5012661;28;20261;-71
2023/06/15 05:32:53;;;;;;;3.22;3.03;;;22.30;55.90;;;;;;5012114;28;20183;-68
2023/06/15 05:35:21;;;;;;;3.17;2.97;;;22.30;55.80;;;;;;5024732;28;20262;-70
2023/06/15 05:37:48;;;;;;;3.20;3.00;;;22.30;55.80;;;;;;5007758;28;20182;-70
2023/06/15 05:40:14;;;;;;;3.40;3.10;;;22.30;55.90;;;;;;5044633;28;20203;-70
2023/06/15 05:42:40;;;;;;;3.42;3.13;;;22.30;55.90;;;;;;5017605;28;20187;-69
2023/06/15 05:45:08;;;;;;;3.50;3.13;;;22.30;55.80;;;;;;5031162;28;20191;-66
2023/06/15 05:47:35;;;;;;;2.88;2.67;;;22.30;55.80;;;;;;5016960;28;20215;-69
2023/06/15 05:50:02;;;;;;;2.90;2.70;;;22.30;55.80;;;;;;5010663;28;20753;-70
2023/06/15 05:52:29;;;;;;;3.75;3.35;;;22.30;55.90;;;;;;5008378;28;20684;-70
2023/06/15 05:54:55;;;;;;;3.30;3.00;;;22.30;55.80;;;;;;5033231;28;20226;-70
2023/06/15 05:57:21;;;;;;;3.00;2.70;;;22.30;55.80;;;;;;5013303;28;20227;-70
2023/06/15 05:59:47;;;;;;;3.17;2.97;;;22.30;55.90;;;;;;5037517;28;20207;-69
2023/06/15 06:02:13;;;;;;;3.22;3.03;;;22.40;55.90;;;;;;5025476;28;20575;-70
2023/06/15 06:04:39;;;;;;;3.05;2.85;;;22.40;55.90;;;;;;5033621;28;20191;-69
2023/06/15 06:07:06;;;;;;;2.97;2.78;;;22.40;55.90;;;;;;5014642;28;20187;-70
2023/06/15 06:09:34;;;;;;;3.05;2.85;;;22.40;55.90;;;;;;5007590;28;20226;-70
2023/06/15 06:12:01;;;;;;;3.42;3.20;;;22.40;55.90;;;;;;5028242;28;20171;-70
2023/06/15 06:14:28;;;;;;;3.30;3.10;;;22.40;56.00;;;;;;5030501;28;20211;-70
2023/06/15 06:16:55;;;;;;;3.33;3.13;;;22.40;55.90;;;;;;5027524;28;20186;-70
2023/06/15 06:19:22;;;;;;;3.28;3.03;;;22.40;56.00;;;;;;5033659;28;20203;-69
2023/06/15 06:21:48;;;;;;;3.50;3.20;;;22.40;55.90;;;;;;5004273;28;20782;-70
2023/06/15 06:24:16;;;;;;;2.97;2.78;;;22.40;56.00;;;;;;5021763;28;20185;-71
2023/06/15 06:26:45;;;;;;;3.17;2.97;;;22.40;56.00;;;;;;5010127;28;20190;-69
2023/06/15 06:29:10;;;;;;;3.20;2.95;;;22.40;56.40;;;;;;5008772;28;20211;-70
2023/06/15 06:31:36;;;;;;;5.85;3.15;;;22.40;56.00;;;;;;5032544;28;20195;-70
2023/06/15 06:34:02;;;;;;;3.00;2.50;;;22.40;56.10;;;;;;5025165;28;20187;-70
2023/06/15 06:36:28;;;;;;;2.88;2.67;;;22.40;56.00;;;;;;5000458;28;20235;-72
2023/06/15 06:38:54;;;;;;;3.22;3.03;;;22.40;56.00;;;;;;5033196;28;20234;-70
2023/06/15 06:41:20;;;;;;;3.17;2.88;;;22.40;56.10;;;;;;5026403;28;20284;-72
2023/06/15 06:43:45;;;;;;;3.22;3.03;;;22.40;56.10;;;;;;5024870;28;20270;-70
2023/06/15 06:46:13;;;;;;;2.80;2.60;;;22.40;56.10;;;;;;5024658;28;20187;-69
2023/06/15 06:48:39;;;;;;;2.85;2.65;;;22.40;56.20;;;;;;5021304;28;20192;-70
2023/06/15 06:51:04;;;;;;;3.20;3.00;;;22.40;56.20;;;;;;5019798;28;20241;-70
2023/06/15 06:53:30;;;;;;;3.10;2.90;;;22.40;56.20;;;;;;5015860;28;20234;-71
2023/06/15 06:55:56;;;;;;;3.28;3.08;;;22.40;56.20;;;;;;5002088;28;20192;-70
2023/06/15 06:58:21;;;;;;;3.03;2.83;;;22.40;56.20;;;;;;5038387;28;20184;-70
2023/06/15 07:00:47;;;;;;;2.95;2.75;;;22.40;56.20;;;;;;5041039;28;20207;-70
2023/06/15 07:03:13;;;;;;;3.30;3.00;;;22.40;56.20;;;;;;5012498;28;20239;-73
2023/06/15 07:05:38;;;;;;;3.28;2.90;;;22.40;56.20;;;;;;5020729;28;20192;-70
2023/06/15 07:08:04;;;;;;;3.40;3.10;;;22.40;56.20;;;;;;5002879;28;20187;-70
2023/06/15 07:10:30;;;;;;;3.17;2.97;;;22.40;56.30;;;;;;5038784;28;20310;-70
2023/06/15 07:12:56;;;;;;;3.35;3.05;;;22.40;56.30;;;;;;5001722;28;20194;-70
2023/06/15 07:15:23;;;;;;;3.40;3.10;;;22.40;56.30;;;;;;5024790;28;20188;-70
2023/06/15 07:17:49;;;;;;;3.58;3.28;;;22.40;56.30;;;;;;5004736;28;20188;-70
2023/06/15 07:20:15;;;;;;;3.20;2.97;;;22.40;56.30;;;;;;5033886;28;20207;-70
2023/06/15 07:22:42;;;;;;;3.67;3.08;;;22.40;56.20;;;;;;5029925;28;20191;-70
2023/06/15 07:25:08;;;;;;;3.47;3.17;;;22.50;56.40;;;;;;5019682;28;20195;-70
2023/06/15 07:27:34;;;;;;;3.05;2.85;;;22.40;56.20;;;;;;5030147;28;20199;-69
2023/06/15 07:29:59;;;;;;;3.58;3.28;;;22.40;56.20;;;;;;5009557;28;20218;-69
2023/06/15 07:32:25;;;;;;;3.05;2.75;;;22.40;56.30;;;;;;5023691;28;20219;-70
2023/06/15 07:34:51;;;;;;;3.35;3.15;;;22.40;56.20;;;;;;5007829;28;20179;-70
2023/06/15 07:37:17;;;;;;;2.97;2.72;;;22.40;56.10;;;;;;5007667;28;20191;-70
2023/06/15 07:39:42;;;;;;;3.13;2.90;;;22.50;56.30;;;;;;5024023;28;20222;-70
2023/06/15 07:42:08;;;;;;;3.00;2.80;;;22.50;56.30;;;;;;5008759;28;20652;-70
2023/06/15 07:44:35;;;;;;;3.10;2.90;;;22.50;56.30;;;;;;5031676;28;20191;-70
2023/06/15 07:47:01;;;;;;;4.45;2.60;;;22.50;56.40;;;;;;5031617;28;20191;-71
2023/06/15 07:49:27;;;;;;;3.33;3.03;;;22.50;56.30;;;;;;5033959;28;20213;-72
2023/06/15 07:51:52;;;;;;;3.40;3.10;;;22.50;56.40;;;;;;5023331;28;20202;-70
2023/06/15 07:54:19;;;;;;;3.30;3.00;;;22.50;56.30;;;;;;5015268;28;20199;-68
2023/06/15 07:56:45;;;;;;;3.30;3.10;;;22.50;56.20;;;;;;5031666;28;20175;-70
2023/06/15 07:59:11;;;;;;;3.00;2.80;;;22.50;56.20;;;;;;5032929;28;20215;-70
2023/06/15 08:01:37;;;;;;;2.92;2.72;;;22.50;56.30;;;;;;5007026;28;20198;-70
2023/06/15 08:04:03;;;;;;;3.10;2.90;;;22.50;56.30;;;;;;5007121;28;20195;-70
2023/06/15 08:06:30;;;;;;;3.15;2.95;;;22.50;56.30;;;;;;5022276;28;20199;-69
2023/06/15 08:08:56;;;;;;;2.78;2.58;;;22.50;56.20;;;;;;5024656;28;20368;-70
2023/06/15 08:11:21;;;;;;;3.22;3.03;;;22.50;56.20;;;;;;5039509;28;20270;-71
2023/06/15 08:13:47;;;;;;;3.50;3.20;;;22.50;56.20;;;;;;5007343;28;20187;-70
2023/06/15 08:16:13;;;;;;;4.18;2.80;;;22.50;56.70;;;;;;5028085;28;20184;-70
2023/06/15 08:18:39;;;;;;;3.25;2.97;;;22.50;56.00;;;;;;5022340;28;20191;-70
2023/06/15 08:21:05;;;;;;;3.83;3.15;;;22.60;56.20;;;;;;5026319;28;20200;-70
2023/06/15 08:23:30;;;;;;;4.07;3.15;;;22.60;56.10;;;;;;5002698;28;20238;-70
2023/06/15 08:25:56;;;;;;;3.53;3.22;;;22.60;56.10;;;;;;5016186;28;20236;-71
2023/06/15 08:28:22;;;;;;;3.10;2.90;;;22.60;56.10;;;;;;5048019;28;20189;-72
2023/06/15 08:30:50;;;;;;;3.33;2.97;;;22.60;56.10;;;;;;5007291;28;20249;-70
2023/06/15 08:33:18;;;;;;;3.25;3.05;;;22.60;56.20;;;;;;5040816;28;20180;-69
2023/06/15 08:35:44;;;;;;;3.40;3.10;;;22.60;56.10;;;;;;5011107;28;20209;-69
2023/06/15 08:38:10;;;;;;;3.05;2.75;;;22.60;55.90;;;;;;5011384;28;20192;-69
2023/06/15 08:40:36;;;;;;;4.20;3.80;;;22.60;55.80;;;;;;5035737;28;20238;-70
2023/06/15 08:43:03;;;;;;;2.92;2.72;;;22.60;56.00;;;;;;5024736;28;20245;-70
2023/06/15 08:45:40;;;;;;;3.47;3.15;;;22.60;56.00;;;;;;5014502;28;20631;-70
2023/06/15 08:48:10;;;;;;;3.22;2.95;;;22.60;55.90;;;;;;5030881;28;20187;-70
2023/06/15 08:50:39;;;;;;;2.80;2.60;;;22.70;56.00;;;;;;5030695;28;20717;-70
2023/06/15 08:53:06;;;;;;;3.35;3.05;;;22.70;56.00;;;;;;5018188;28;20188;-70
2023/06/15 08:55:33;;;;;;;3.30;2.90;;;22.70;56.00;;;;;;5028743;28;20187;-70
2023/06/15 08:58:01;;;;;;;3.00;2.80;;;22.70;56.00;;;;;;5030817;28;20187;-69
2023/06/15 09:00:27;;;;;;;3.20;3.00;;;22.70;56.00;;;;;;5010900;28;20212;-70
2023/06/15 09:02:57;;;;;;;3.33;3.05;;;22.70;56.00;;;;;;5015252;28;20197;-69
2023/06/15 09:05:24;;;;;;;3.72;3.38;;;22.70;55.80;;;;;;5016830;28;20203;-70
2023/06/15 09:07:50;;;;;;;3.15;2.95;;;22.70;55.80;;;;;;5019935;28;20220;-70
2023/06/15 09:10:21;;;;;;;3.90;3.47;;;22.70;55.80;;;;;;5027726;28;20219;-71
2023/06/15 09:12:51;;;;;;;3.25;3.05;;;22.70;55.60;;;;;;5018579;28;20187;-69
2023/06/15 09:15:27;;;;;;;3.55;3.25;;;22.70;55.70;;;;;;5027528;28;20207;-70
2023/06/15 09:17:58;;;;;;;3.30;3.10;;;22.70;55.80;;;;;;5027685;28;20186;-70
2023/06/15 09:20:38;;;;;;;3.05;2.85;;;22.70;55.80;;;;;;5035552;28;20209;-70
2023/06/15 09:23:10;;;;;;;3.05;2.85;;;22.70;55.90;;;;;;5028447;28;20213;-70
2023/06/15 09:25:36;;;;;;;3.17;2.83;;;22.70;56.00;;;;;;5034794;28;20217;-70
2023/06/15 09:28:08;;;;;;;2.80;2.60;;;22.70;56.20;;;;;;5018403;28;20229;-69
2023/06/15 09:30:41;;;;;;;3.95;3.20;;;22.70;56.80;;;;;;5000202;28;20310;-67
2023/06/15 09:33:18;;;;;;;3.05;2.85;;;22.70;56.20;;;;;;5006439;28;20191;-69
2023/06/15 09:36:03;;;;;;;3.22;3.00;;;22.70;56.20;;;;;;5017363;28;20628;-69
2023/06/15 09:38:40;;;;;;;3.17;2.88;;;22.70;56.20;;;;;;5050957;28;20272;-70
2023/06/15 09:41:08;;;;;;;2.92;2.72;;;22.70;56.10;;;;;;5029655;28;20269;-70
2023/06/15 09:43:38;;;;;;;3.03;2.83;;;22.70;56.30;;;;;;5030911;28;20272;-70
2023/06/15 09:46:21;;;;;;;4.07;2.90;;;22.70;56.30;;;;;;5023847;28;20191;-70
2023/06/15 09:48:47;;;;;;;3.50;3.17;;;22.60;56.30;;;;;;5008800;28;20298;-70
2023/06/15 09:51:20;;;;;;;2.92;2.70;;;22.60;56.40;;;;;;5035947;28;20188;-70
2023/06/15 09:53:47;;;;;;;3.22;2.92;;;22.70;56.50;;;;;;5017560;28;20236;-70
2023/06/15 09:56:13;;;;;;;3.33;3.03;;;22.70;56.40;;;;;;5003214;28;20195;-70
2023/06/15 09:58:39;;;;;;;3.20;3.00;;;22.70;56.40;;;;;;5023959;28;20196;-71
2023/06/15 10:01:10;;;;;;;3.13;2.92;;;22.70;56.50;;;;;;5011782;28;20246;-70
2023/06/15 10:03:43;;;;;;;3.10;2.90;;;22.60;56.40;;;;;;5023561;28;20203;-70
2023/06/15 10:06:15;;;;;;;2.80;2.60;;;22.70;56.40;;;;;;5017330;28;20195;-67
2023/06/15 10:08:44;;;;;;;3.10;2.90;;;22.70;56.30;;;;;;5034158;28;20202;-70
2023/06/15 10:11:12;;;;;;;3.60;3.00;;;22.70;56.40;;;;;;5011434;28;20191;-70
2023/06/15 10:13:56;;;;;;;3.05;2.85;;;22.70;56.40;;;;;;5032577;28;20183;-70
2023/06/15 10:16:22;;;;;;;3.00;2.80;;;22.70;56.40;;;;;;5016927;28;20183;-70
2023/06/15 10:19:02;;;;;;;3.63;2.70;;;22.70;56.40;;;;;;5033913;28;20290;-70
2023/06/15 10:21:32;;;;;;;3.60;3.40;;;22.70;56.50;;;;;;5033643;28;20619;-69
2023/06/15 10:24:05;;;;;;;3.30;3.05;;;22.70;56.40;;;;;;5014952;28;20674;-70
2023/06/15 10:26:33;;;;;;;3.47;3.20;;;22.70;56.40;;;;;;5013990;28;20165;-70
2023/06/15 10:29:12;;;;;;;3.72;3.42;;;22.70;56.40;;;;;;5025850;28;20318;-70
2023/06/15 10:32:08;;;;;;;3.95;3.40;;;22.70;56.30;;;;;;5000554;28;20187;-70
2023/06/15 10:35:12;;;;;;;3.95;3.65;;;22.70;56.20;;;;;;5033491;28;20187;-70
2023/06/15 10:37:52;;;;;;;3.40;3.20;;;22.70;56.30;;;;;;5024431;28;20200;-71
2023/06/15 10:40:32;;;;;;;4.00;3.60;;;22.70;56.30;;;;;;5024977;28;20280;-69
2023/06/15 10:43:01;;;;;;;3.83;3.53;;;22.70;56.30;;;;;;5031728;28;20198;-71
2023/06/15 10:45:34;;;;;;;4.80;3.80;;;22.70;56.20;;;;;;5026107;28;20246;-70
2023/06/15 10:48:04;;;;;;;4.75;3.80;;;22.70;56.20;;;;;;5009240;28;20249;-68
2023/06/15 10:50:40;;;;;;;4.15;3.75;;;22.70;56.20;;;;;;5049203;28;20295;-71
2023/06/15 10:53:33;;;;;;;3.70;3.40;;;22.70;56.10;;;;;;5038223;28;20244;-72
2023/06/15 10:55:59;;;;;;;4.72;3.90;;;22.70;56.20;;;;;;5024252;28;20183;-70
2023/06/15 10:58:27;;;;;;;3.90;3.60;;;22.70;56.20;;;;;;5032743;28;20247;-69
2023/06/15 11:01:13;;;;;;;4.07;3.78;;;22.70;56.20;;;;;;5015826;28;20239;-69
2023/06/15 11:03:43;;;;;;;5.65;3.58;;;22.70;56.20;;;;;;5026843;28;20198;-70
2023/06/15 11:06:21;;;;;;;4.00;3.70;;;22.80;56.20;;;;;;5016253;28;20218;-69
2023/06/15 11:09:03;;;;;;;3.97;3.58;;;22.80;56.20;;;;;;5031549;28;20215;-70
2023/06/15 11:11:35;;;;;;;4.05;3.75;;;22.80;56.00;;;;;;5032627;28;20265;-71
2023/06/15 11:14:21;;;;;;;3.75;3.45;;;22.80;56.00;;;;;;5015875;28;20184;-70
2023/06/15 11:17:02;;;;;;;4.70;3.97;;;22.80;55.90;;;;;;5042079;28;20312;-72
2023/06/15 11:19:29;;;;;;;4.05;3.65;;;22.80;56.00;;;;;;5012595;28;20307;-69
2023/06/15 11:22:05;;;;;;;5.35;3.70;;;22.80;56.10;;;;;;5031939;28;20198;-71
2023/06/15 11:24:39;;;;;;;4.00;3.70;;;22.80;56.20;;;;;;5032401;28;20230;-71
2023/06/15 11:27:08;;;;;;;3.90;3.60;;;22.70;56.10;;;;;;5012386;28;20184;-69
2023/06/15 11:29:40;;;;;;;5.22;4.03;;;22.80;56.10;;;;;;5021508;28;20339;-69
2023/06/15 11:32:09;;;;;;;4.97;3.72;;;22.80;56.00;;;;;;5025387;28;20203;-70
2023/06/15 11:34:36;;;;;;;4.18;3.78;;;22.70;55.80;;;;;;5045990;28;20223;-70
2023/06/15 11:37:03;;;;;;;4.20;3.80;;;22.80;56.00;;;;;;5033309;28;20190;-70
2023/06/15 11:39:33;;;;;;;4.30;3.90;;;22.80;55.90;;;;;;5012198;28;20208;-69
2023/06/15 11:42:00;;;;;;;4.30;3.60;;;22.80;56.00;;;;;;5024338;28;20187;-68
2023/06/15 11:44:27;;;;;;;5.05;4.18;;;22.80;56.00;;;;;;5015536;28;20213;-70
2023/06/15 11:46:58;;;;;;;4.40;4.00;;;22.80;56.10;;;;;;5007789;28;20210;-70
2023/06/15 11:49:33;;;;;;;4.72;3.97;;;22.80;56.10;;;;;;5007214;28;20223;-69
2023/06/15 11:51:59;;;;;;;4.13;3.72;;;22.80;56.00;;;;;;5023891;28;20179;-70
2023/06/15 11:54:26;;;;;;;4.40;3.95;;;22.80;56.00;;;;;;5025047;28;20209;-70
2023/06/15 11:56:52;;;;;;;4.47;4.07;;;22.80;56.10;;;;;;5021205;28;20191;-69
2023/06/15 11:59:21;;;;;;;4.72;3.60;;;22.80;56.00;;;;;;5007596;28;20208;-70
2023/06/15 12:01:49;;;;;;;4.30;3.90;;;22.80;56.00;;;;;;5021216;28;20192;-70
2023/06/15 12:04:15;;;;;;;4.40;4.00;;;22.80;56.10;;;;;;5025906;28;20191;-71
2023/06/15 12:06:42;;;;;;;4.47;3.55;;;22.80;55.90;;;;;;4998173;28;20208;-72
2023/06/15 12:09:09;;;;;;;4.05;3.67;;;22.80;56.00;;;;;;5024836;28;20227;-70
2023/06/15 12:11:36;;;;;;;5.13;3.90;;;22.80;55.90;;;;;;5048128;28;20187;-70
2023/06/15 12:14:08;;;;;;;4.18;3.78;;;22.80;56.00;;;;;;5043888;28;20180;-69
2023/06/15 12:16:35;;;;;;;4.25;3.95;;;22.80;55.90;;;;;;5028243;28;20260;-69
2023/06/15 12:19:03;;;;;;;3.67;3.38;;;22.80;56.00;;;;;;5024483;28;20250;-68
2023/06/15 12:21:37;;;;;;;4.28;3.88;;;22.80;55.90;;;;;;5015174;28;20191;-68
2023/06/15 12:24:16;;;;;;;4.18;3.88;;;22.80;55.80;;;;;;5019530;28;20667;-69
2023/06/15 12:26:52;;;;;;;3.88;3.58;;;22.80;55.80;;;;;;5012669;28;20200;-71
2023/06/15 12:29:20;;;;;;;4.50;3.45;;;22.80;55.80;;;;;;5023170;28;20257;-70
2023/06/15 12:31:53;;;;;;;3.92;3.63;;;22.80;55.80;;;;;;5011119;28;20585;-70
2023/06/15 12:34:26;;;;;;;3.88;3.58;;;22.80;55.90;;;;;;5022185;28;20661;-70
2023/06/15 12:36:54;;;;;;;4.22;3.83;;;22.90;56.00;;;;;;5012724;28;20636;-69
2023/06/15 12:39:27;;;;;;;4.10;3.70;;;22.90;56.00;;;;;;5017963;28;20245;-70
2023/06/15 12:42:01;;;;;;;3.90;3.60;;;22.80;56.10;;;;;;5022221;28;20183;-70
2023/06/15 12:44:29;;;;;;;3.83;3.50;;;22.80;56.00;;;;;;5031178;28;20598;-69
2023/06/15 12:46:55;;;;;;;4.13;3.80;;;22.80;55.90;;;;;;5047809;28;20217;-71
2023/06/15 12:49:20;;;;;;;3.90;3.60;;;22.80;56.00;;;;;;5047968;28;20253;-70
2023/06/15 12:51:47;;;;;;;3.47;3.17;;;22.80;55.90;;;;;;5031189;28;20213;-69
2023/06/15 12:54:13;;;;;;;3.67;3.30;;;22.80;55.90;;;;;;5014716;28;20188;-69
2023/06/15 12:56:39;;;;;;;3.60;3.30;;;22.80;55.80;;;;;;5025898;28;20187;-70